Airfield :
LOGIN :

Register | Disclaimer

   EN    FR    IT 

 










Legend :    VFR   Marginal VFR   IFR   Intensive IFR   Very Intensive IFR
Visi :
Ceiling :
>= 8 km
>= 3000ft
5 to 8 km
1000 to 3000 ft
1500m to 5 km
500 to 1000 ft
800 to 1500m
200 to 500 ft
< 800m
< 200 ft
Symbols :   Thunderstorms  Fog  Heavy snow  Heavy precipitations  Wind > 20 kt
SIGMETs :     Misc.  Thunderstorms  Icing  Turbulence  Mountain Waves  Volcanic Ashes






- Airport Elevation : 37 ft


EHVL - Vlieland Heliport

CURRENT METAR :
  • 281825Z AUTO 33020KT 9999 FEW022 12/07 Q1020 BLU

EXPIRED METARs :
  • 281814Z AUTO 33019KT 9999 FEW023 SCT027 BKN060 12/07 Q1020 BLU
  • 281758Z AUTO 34019KT 9999 SCT023 SCT029 BKN037 12/06 Q1020 WHT
  • 281755Z AUTO 34018KT 9999 FEW023 SCT027 BKN031 12/06 Q1020 BLU
  • 281739Z AUTO 33021KT 9999 SCT022 BKN025 BKN029 12/07 Q1020 WHT
  • 281725Z AUTO 33020KT 9999 FEW027 SCT057 12/06 Q1020 BLU
  • 281706Z AUTO 32020KT 9999 FEW023 SCT027 BKN046 13/06 Q1020 BLU
  • 281655Z AUTO 32020KT 9999 FEW024 SCT030 13/07 Q1020 BLU
  • 281638Z AUTO 32021KT 9999 SCT021 SCT026 BKN031 13/07 Q1020 WHT
  • 281625Z AUTO 32020KT 9999 BKN021 BKN025 BKN032 13/07 Q1020 WHT
  • 281612Z AUTO 32019KT 9999 FEW021 SCT026 BKN030 13/07 Q1021 BLU
  • 281555Z AUTO 31018KT 9999 FEW016 SCT020 BKN024 12/07 Q1021 WHT

Expired Forecast.



MET'MAP, your aeronautical weather chart ! - Copyright ORBIFLY December 2007 - Disclaimer

ORBIFLY MET'MAP TEAM :

Programming & Development : Alexandra Zaïnal
Original concept : Baudouin d'Aumeries
Technical & hardware support : Manuel Goepfert
Assistance : Marc-Olivier Méhu

Contact : metmap@orbifly.com




SOURCES & CREDITS :

   NOAA